sensor_id;sensor_type;location;lat;lon;timestamp;pressure;altitude;pressure_sealevel;temperature;humidity
13080;BME280;6606;49.154;9.280;2024-02-26T00:00:49;97771.59;;;6.28;100.00
13080;BME280;6606;49.154;9.280;2024-02-26T00:03:30;97759.78;;;6.21;100.00
13080;BME280;6606;49.154;9.280;2024-02-26T00:06:15;97765.50;;;6.15;100.00
13080;BME280;6606;49.154;9.280;2024-02-26T00:09:00;97768.75;;;6.06;100.00
13080;BME280;6606;49.154;9.280;2024-02-26T00:11:43;97769.88;;;5.89;100.00
13080;BME280;6606;49.154;9.280;2024-02-26T00:14:24;97760.63;;;5.96;100.00
13080;BME280;6606;49.154;9.280;2024-02-26T00:17:06;97774.13;;;6.04;100.00
13080;BME280;6606;49.154;9.280;2024-02-26T00:19:48;97774.00;;;6.18;100.00
13080;BME280;6606;49.154;9.280;2024-02-26T00:22:29;97765.94;;;6.22;100.00
13080;BME280;6606;49.154;9.280;2024-02-26T00:25:13;97766.34;;;6.28;100.00
13080;BME280;6606;49.154;9.280;2024-02-26T00:27:54;97760.75;;;6.33;100.00
13080;BME280;6606;49.154;9.280;2024-02-26T00:30:37;97776.25;;;6.37;100.00
13080;BME280;6606;49.154;9.280;2024-02-26T00:33:18;97778.56;;;6.29;100.00
13080;BME280;6606;49.154;9.280;2024-02-26T00:36:00;97783.84;;;6.16;100.00
13080;BME280;6606;49.154;9.280;2024-02-26T00:38:42;97773.59;;;6.12;100.00
13080;BME280;6606;49.154;9.280;2024-02-26T00:41:26;97780.03;;;6.08;100.00
13080;BME280;6606;49.154;9.280;2024-02-26T00:44:08;97781.50;;;5.99;100.00
13080;BME280;6606;49.154;9.280;2024-02-26T00:46:50;97774.13;;;6.04;100.00
13080;BME280;6606;49.154;9.280;2024-02-26T00:49:31;97768.03;;;6.16;100.00
13080;BME280;6606;49.154;9.280;2024-02-26T00:52:13;97769.81;;;6.29;100.00
13080;BME280;6606;49.154;9.280;2024-02-26T00:54:55;97762.66;;;6.31;100.00
13080;BME280;6606;49.154;9.280;2024-02-26T00:57:38;97759.56;;;6.37;100.00
13080;BME280;6606;49.154;9.280;2024-02-26T01:00:21;97765.72;;;6.37;100.00
13080;BME280;6606;49.154;9.280;2024-02-26T01:03:03;97765.19;;;6.19;100.00
13080;BME280;6606;49.154;9.280;2024-02-26T01:05:45;97765.91;;;6.09;100.00
13080;BME280;6606;49.154;9.280;2024-02-26T01:08:27;97766.97;;;6.06;100.00
13080;BME280;6606;49.154;9.280;2024-02-26T01:11:08;97769.06;;;6.01;100.00
13080;BME280;6606;49.154;9.280;2024-02-26T01:13:52;97765.06;;;5.95;100.00
13080;BME280;6606;49.154;9.280;2024-02-26T01:16:36;97764.00;;;5.85;100.00
13080;BME280;6606;49.154;9.280;2024-02-26T01:19:18;97762.50;;;5.81;100.00
13080;BME280;6606;49.154;9.280;2024-02-26T01:22:00;97771.16;;;5.83;100.00
13080;BME280;6606;49.154;9.280;2024-02-26T01:24:41;97767.56;;;5.84;100.00
13080;BME280;6606;49.154;9.280;2024-02-26T01:27:23;97778.75;;;5.88;100.00
13080;BME280;6606;49.154;9.280;2024-02-26T01:30:10;97766.50;;;5.87;100.00
13080;BME280;6606;49.154;9.280;2024-02-26T01:32:52;97770.31;;;5.83;100.00
13080;BME280;6606;49.154;9.280;2024-02-26T01:35:33;97778.09;;;5.84;100.00
13080;BME280;6606;49.154;9.280;2024-02-26T01:38:15;97781.44;;;5.73;100.00
13080;BME280;6606;49.154;9.280;2024-02-26T01:40:56;97779.44;;;5.64;100.00
13080;BME280;6606;49.154;9.280;2024-02-26T01:43:38;97791.56;;;5.67;100.00
13080;BME280;6606;49.154;9.280;2024-02-26T01:46:21;97791.44;;;5.68;100.00
13080;BME280;6606;49.154;9.280;2024-02-26T01:49:03;97799.44;;;5.67;100.00
13080;BME280;6606;49.154;9.280;2024-02-26T01:51:45;97802.50;;;5.73;100.00
13080;BME280;6606;49.154;9.280;2024-02-26T01:54:27;97813.03;;;5.73;100.00
13080;BME280;6606;49.154;9.280;2024-02-26T01:57:09;97818.94;;;5.64;100.00
13080;BME280;6606;49.154;9.280;2024-02-26T01:59:52;97814.72;;;5.62;100.00
13080;BME280;6606;49.154;9.280;2024-02-26T02:02:35;97817.50;;;5.86;100.00
13080;BME280;6606;49.154;9.280;2024-02-26T02:05:20;97806.75;;;5.89;100.00
13080;BME280;6606;49.154;9.280;2024-02-26T02:08:02;97798.34;;;5.96;100.00
13080;BME280;6606;49.154;9.280;2024-02-26T02:11:03;97812.31;;;6.11;100.00
13080;BME280;6606;49.154;9.280;2024-02-26T02:13:44;97804.19;;;6.14;100.00
13080;BME280;6606;49.154;9.280;2024-02-26T02:16:26;97818.22;;;6.28;100.00
13080;BME280;6606;49.154;9.280;2024-02-26T02:19:09;97790.81;;;6.30;100.00
13080;BME280;6606;49.154;9.280;2024-02-26T02:21:52;97794.81;;;6.36;100.00
13080;BME280;6606;49.154;9.280;2024-02-26T02:24:34;97761.38;;;6.24;100.00
13080;BME280;6606;49.154;9.280;2024-02-26T02:27:16;97759.59;;;6.24;100.00
13080;BME280;6606;49.154;9.280;2024-02-26T02:30:07;97756.09;;;6.36;100.00
13080;BME280;6606;49.154;9.280;2024-02-26T02:32:49;97750.94;;;6.35;100.00
13080;BME280;6606;49.154;9.280;2024-02-26T02:35:30;97748.84;;;6.40;100.00
13080;BME280;6606;49.154;9.280;2024-02-26T02:38:13;97754.50;;;6.47;100.00
13080;BME280;6606;49.154;9.280;2024-02-26T02:40:55;97742.47;;;6.43;100.00
13080;BME280;6606;49.154;9.280;2024-02-26T02:43:37;97767.38;;;6.38;100.00
13080;BME280;6606;49.154;9.280;2024-02-26T02:46:19;97804.50;;;6.35;100.00
13080;BME280;6606;49.154;9.280;2024-02-26T02:49:01;97803.75;;;6.21;100.00
13080;BME280;6606;49.154;9.280;2024-02-26T02:51:42;97798.41;;;6.35;100.00
13080;BME280;6606;49.154;9.280;2024-02-26T02:54:25;97794.38;;;6.42;100.00
13080;BME280;6606;49.154;9.280;2024-02-26T02:57:07;97796.47;;;6.50;100.00
13080;BME280;6606;49.154;9.280;2024-02-26T02:59:49;97803.44;;;6.63;100.00
13080;BME280;6606;49.154;9.280;2024-02-26T03:02:31;97792.88;;;6.63;100.00
13080;BME280;6606;49.154;9.280;2024-02-26T03:05:12;97809.56;;;6.64;100.00
13080;BME280;6606;49.154;9.280;2024-02-26T03:07:54;97813.66;;;6.68;100.00
13080;BME280;6606;49.154;9.280;2024-02-26T03:10:37;97803.03;;;6.44;100.00
13080;BME280;6606;49.154;9.280;2024-02-26T03:13:19;97812.97;;;6.53;100.00
13080;BME280;6606;49.154;9.280;2024-02-26T03:16:04;97816.53;;;6.52;100.00
13080;BME280;6606;49.154;9.280;2024-02-26T03:18:58;97826.25;;;6.65;100.00
13080;BME280;6606;49.154;9.280;2024-02-26T03:21:39;97815.91;;;6.61;100.00
13080;BME280;6606;49.154;9.280;2024-02-26T03:24:21;97823.38;;;6.68;100.00
13080;BME280;6606;49.154;9.280;2024-02-26T03:27:04;97825.81;;;6.71;100.00
13080;BME280;6606;49.154;9.280;2024-02-26T03:29:49;97838.25;;;6.81;100.00
13080;BME280;6606;49.154;9.280;2024-02-26T03:32:31;97839.53;;;6.76;100.00
13080;BME280;6606;49.154;9.280;2024-02-26T03:35:13;97832.44;;;6.63;100.00
13080;BME280;6606;49.154;9.280;2024-02-26T03:37:55;97845.66;;;6.38;100.00
13080;BME280;6606;49.154;9.280;2024-02-26T03:40:36;97851.88;;;6.50;100.00
13080;BME280;6606;49.154;9.280;2024-02-26T03:43:19;97860.81;;;6.47;100.00
13080;BME280;6606;49.154;9.280;2024-02-26T03:46:01;97851.78;;;6.51;100.00
13080;BME280;6606;49.154;9.280;2024-02-26T03:48:44;97845.00;;;6.47;100.00
13080;BME280;6606;49.154;9.280;2024-02-26T03:51:26;97858.94;;;6.49;100.00
13080;BME280;6606;49.154;9.280;2024-02-26T03:54:18;97853.34;;;6.41;100.00
13080;BME280;6606;49.154;9.280;2024-02-26T03:57:00;97855.34;;;6.50;100.00
13080;BME280;6606;49.154;9.280;2024-02-26T03:59:43;97850.38;;;6.58;100.00
13080;BME280;6606;49.154;9.280;2024-02-26T04:02:25;97856.19;;;6.63;100.00
13080;BME280;6606;49.154;9.280;2024-02-26T04:05:09;97847.34;;;6.65;100.00
13080;BME280;6606;49.154;9.280;2024-02-26T04:07:51;97854.50;;;6.75;100.00
13080;BME280;6606;49.154;9.280;2024-02-26T04:10:33;97843.13;;;6.62;100.00
13080;BME280;6606;49.154;9.280;2024-02-26T04:13:20;97836.16;;;6.48;100.00
13080;BME280;6606;49.154;9.280;2024-02-26T04:16:03;97838.22;;;6.17;100.00
13080;BME280;6606;49.154;9.280;2024-02-26T04:18:46;97828.09;;;5.99;100.00
13080;BME280;6606;49.154;9.280;2024-02-26T04:21:27;97845.69;;;5.71;100.00
13080;BME280;6606;49.154;9.280;2024-02-26T04:24:11;97838.69;;;5.57;100.00
13080;BME280;6606;49.154;9.280;2024-02-26T04:26:53;97836.06;;;5.57;100.00
13080;BME280;6606;49.154;9.280;2024-02-26T04:29:54;97826.69;;;5.53;100.00
13080;BME280;6606;49.154;9.280;2024-02-26T04:32:38;97831.06;;;5.40;100.00
13080;BME280;6606;49.154;9.280;2024-02-26T04:35:20;97831.44;;;5.34;100.00
13080;BME280;6606;49.154;9.280;2024-02-26T04:38:02;97843.06;;;5.44;100.00
13080;BME280;6606;49.154;9.280;2024-02-26T04:40:43;97831.34;;;5.62;100.00
13080;BME280;6606;49.154;9.280;2024-02-26T04:43:25;97838.13;;;5.66;100.00
13080;BME280;6606;49.154;9.280;2024-02-26T04:46:07;97843.97;;;5.57;100.00
13080;BME280;6606;49.154;9.280;2024-02-26T04:48:50;97836.91;;;5.58;100.00
13080;BME280;6606;49.154;9.280;2024-02-26T04:51:32;97837.03;;;5.56;100.00
13080;BME280;6606;49.154;9.280;2024-02-26T04:54:14;97836.72;;;5.61;100.00
13080;BME280;6606;49.154;9.280;2024-02-26T04:56:55;97825.06;;;5.78;100.00
13080;BME280;6606;49.154;9.280;2024-02-26T04:59:37;97819.84;;;5.90;100.00
13080;BME280;6606;49.154;9.280;2024-02-26T05:02:19;97814.78;;;5.87;100.00
13080;BME280;6606;49.154;9.280;2024-02-26T05:05:02;97816.75;;;5.84;100.00
13080;BME280;6606;49.154;9.280;2024-02-26T05:07:44;97811.78;;;5.79;100.00
13080;BME280;6606;49.154;9.280;2024-02-26T05:10:26;97801.88;;;5.70;100.00
13080;BME280;6606;49.154;9.280;2024-02-26T05:13:22;97803.09;;;5.51;100.00
13080;BME280;6606;49.154;9.280;2024-02-26T05:16:05;97807.34;;;5.67;100.00
13080;BME280;6606;49.154;9.280;2024-02-26T05:18:47;97802.72;;;5.70;100.00
13080;BME280;6606;49.154;9.280;2024-02-26T05:21:30;97803.00;;;5.66;100.00
13080;BME280;6606;49.154;9.280;2024-02-26T05:24:11;97803.13;;;5.64;100.00
13080;BME280;6606;49.154;9.280;2024-02-26T05:26:56;97799.34;;;5.68;100.00
13080;BME280;6606;49.154;9.280;2024-02-26T05:29:37;97790.91;;;5.63;100.00
13080;BME280;6606;49.154;9.280;2024-02-26T05:32:19;97804.44;;;5.71;100.00
13080;BME280;6606;49.154;9.280;2024-02-26T05:35:01;97804.31;;;5.73;100.00
13080;BME280;6606;49.154;9.280;2024-02-26T05:37:45;97803.81;;;5.81;100.00
13080;BME280;6606;49.154;9.280;2024-02-26T05:40:27;97797.41;;;5.85;100.00
13080;BME280;6606;49.154;9.280;2024-02-26T05:43:09;97798.97;;;5.87;100.00
13080;BME280;6606;49.154;9.280;2024-02-26T05:45:50;97805.41;;;5.96;100.00
13080;BME280;6606;49.154;9.280;2024-02-26T05:48:46;97808.06;;;5.96;100.00
13080;BME280;6606;49.154;9.280;2024-02-26T05:51:28;97809.72;;;5.97;100.00
13080;BME280;6606;49.154;9.280;2024-02-26T05:54:11;97806.56;;;5.92;100.00
13080;BME280;6606;49.154;9.280;2024-02-26T05:56:53;97810.13;;;5.78;100.00
13080;BME280;6606;49.154;9.280;2024-02-26T05:59:35;97813.72;;;5.77;100.00
13080;BME280;6606;49.154;9.280;2024-02-26T06:02:16;97816.44;;;5.75;100.00
13080;BME280;6606;49.154;9.280;2024-02-26T06:04:58;97832.03;;;5.79;100.00
13080;BME280;6606;49.154;9.280;2024-02-26T06:07:40;97831.81;;;5.82;100.00
13080;BME280;6606;49.154;9.280;2024-02-26T06:10:23;97833.94;;;5.77;100.00
13080;BME280;6606;49.154;9.280;2024-02-26T06:13:04;97837.69;;;5.72;100.00
13080;BME280;6606;49.154;9.280;2024-02-26T06:15:46;97849.91;;;5.73;100.00
13080;BME280;6606;49.154;9.280;2024-02-26T06:18:28;97852.00;;;5.68;100.00
13080;BME280;6606;49.154;9.280;2024-02-26T06:21:10;97851.41;;;5.78;100.00
13080;BME280;6606;49.154;9.280;2024-02-26T06:23:51;97863.69;;;5.91;100.00
13080;BME280;6606;49.154;9.280;2024-02-26T06:26:35;97871.28;;;5.96;100.00
13080;BME280;6606;49.154;9.280;2024-02-26T06:29:16;97881.00;;;5.95;100.00
13080;BME280;6606;49.154;9.280;2024-02-26T06:31:58;97897.44;;;5.99;100.00
13080;BME280;6606;49.154;9.280;2024-02-26T06:34:40;97909.66;;;6.00;100.00
13080;BME280;6606;49.154;9.280;2024-02-26T06:37:21;97907.38;;;6.08;100.00
13080;BME280;6606;49.154;9.280;2024-02-26T06:40:04;97905.25;;;6.13;100.00
13080;BME280;6606;49.154;9.280;2024-02-26T06:42:48;97916.22;;;6.07;100.00
13080;BME280;6606;49.154;9.280;2024-02-26T06:45:42;97914.66;;;6.17;100.00
13080;BME280;6606;49.154;9.280;2024-02-26T06:48:24;97923.63;;;6.15;100.00
13080;BME280;6606;49.154;9.280;2024-02-26T06:51:06;97915.41;;;6.19;100.00
13080;BME280;6606;49.154;9.280;2024-02-26T06:53:48;97896.88;;;6.34;100.00
13080;BME280;6606;49.154;9.280;2024-02-26T06:56:30;97879.88;;;6.12;100.00
13080;BME280;6606;49.154;9.280;2024-02-26T06:59:13;97882.34;;;5.61;100.00
13080;BME280;6606;49.154;9.280;2024-02-26T07:01:55;97886.28;;;5.54;100.00
13080;BME280;6606;49.154;9.280;2024-02-26T07:04:38;97902.44;;;5.62;100.00
13080;BME280;6606;49.154;9.280;2024-02-26T07:07:19;97903.75;;;5.69;100.00
13080;BME280;6606;49.154;9.280;2024-02-26T07:10:03;97912.56;;;5.83;100.00
13080;BME280;6606;49.154;9.280;2024-02-26T07:12:46;97915.94;;;5.85;100.00
13080;BME280;6606;49.154;9.280;2024-02-26T07:15:29;97915.66;;;6.02;100.00
13080;BME280;6606;49.154;9.280;2024-02-26T07:18:10;97927.50;;;6.09;100.00
13080;BME280;6606;49.154;9.280;2024-02-26T07:20:52;97921.28;;;6.10;100.00
13080;BME280;6606;49.154;9.280;2024-02-26T07:23:34;97917.06;;;6.08;100.00
13080;BME280;6606;49.154;9.280;2024-02-26T07:26:16;97934.31;;;5.99;100.00
13080;BME280;6606;49.154;9.280;2024-02-26T07:28:59;97939.84;;;6.09;100.00
13080;BME280;6606;49.154;9.280;2024-02-26T07:31:42;97939.16;;;5.92;100.00
13080;BME280;6606;49.154;9.280;2024-02-26T07:34:23;97942.56;;;6.07;100.00
13080;BME280;6606;49.154;9.280;2024-02-26T07:37:09;97939.72;;;6.10;100.00
13080;BME280;6606;49.154;9.280;2024-02-26T07:39:51;97940.13;;;6.04;100.00
13080;BME280;6606;49.154;9.280;2024-02-26T07:42:33;97937.59;;;6.30;100.00
13080;BME280;6606;49.154;9.280;2024-02-26T07:45:15;97940.06;;;6.58;100.00
13080;BME280;6606;49.154;9.280;2024-02-26T07:48:01;97944.84;;;6.79;100.00
13080;BME280;6606;49.154;9.280;2024-02-26T07:50:44;97949.50;;;7.01;100.00
13080;BME280;6606;49.154;9.280;2024-02-26T07:53:32;97948.63;;;7.00;100.00
13080;BME280;6606;49.154;9.280;2024-02-26T07:56:14;97941.47;;;6.90;100.00
13080;BME280;6606;49.154;9.280;2024-02-26T07:59:03;97944.22;;;6.88;100.00
13080;BME280;6606;49.154;9.280;2024-02-26T08:01:49;97950.88;;;7.06;100.00
13080;BME280;6606;49.154;9.280;2024-02-26T08:04:32;97946.75;;;7.02;100.00
13080;BME280;6606;49.154;9.280;2024-02-26T08:07:14;97949.06;;;6.94;100.00
13080;BME280;6606;49.154;9.280;2024-02-26T08:09:55;97962.72;;;7.14;100.00
13080;BME280;6606;49.154;9.280;2024-02-26T08:12:37;97959.44;;;7.23;100.00
13080;BME280;6606;49.154;9.280;2024-02-26T08:15:19;97963.38;;;7.30;100.00
13080;BME280;6606;49.154;9.280;2024-02-26T08:18:01;97969.94;;;7.61;100.00
13080;BME280;6606;49.154;9.280;2024-02-26T08:20:45;97958.16;;;7.41;100.00
13080;BME280;6606;49.154;9.280;2024-02-26T08:23:28;97964.13;;;7.69;100.00
13080;BME280;6606;49.154;9.280;2024-02-26T08:26:11;97958.28;;;7.77;100.00
13080;BME280;6606;49.154;9.280;2024-02-26T08:28:53;97959.22;;;7.88;100.00
13080;BME280;6606;49.154;9.280;2024-02-26T08:31:36;97970.59;;;8.02;100.00
13080;BME280;6606;49.154;9.280;2024-02-26T08:34:18;97968.03;;;8.00;100.00
13080;BME280;6606;49.154;9.280;2024-02-26T08:37:01;97967.94;;;8.02;100.00
13080;BME280;6606;49.154;9.280;2024-02-26T08:39:42;97974.03;;;8.15;100.00
13080;BME280;6606;49.154;9.280;2024-02-26T08:42:26;97963.03;;;8.08;100.00
13080;BME280;6606;49.154;9.280;2024-02-26T08:45:08;97966.16;;;8.26;100.00
13080;BME280;6606;49.154;9.280;2024-02-26T08:47:51;97968.16;;;8.47;100.00
13080;BME280;6606;49.154;9.280;2024-02-26T08:50:33;97969.34;;;8.43;100.00
13080;BME280;6606;49.154;9.280;2024-02-26T08:53:19;97971.59;;;8.60;100.00
13080;BME280;6606;49.154;9.280;2024-02-26T08:56:04;97967.38;;;9.04;100.00
13080;BME280;6606;49.154;9.280;2024-02-26T08:58:46;97976.94;;;9.29;100.00
13080;BME280;6606;49.154;9.280;2024-02-26T09:01:29;97977.28;;;9.24;100.00
13080;BME280;6606;49.154;9.280;2024-02-26T09:04:10;97975.03;;;8.96;100.00
13080;BME280;6606;49.154;9.280;2024-02-26T09:06:52;97978.84;;;9.27;100.00
13080;BME280;6606;49.154;9.280;2024-02-26T09:09:35;97980.78;;;9.59;100.00
13080;BME280;6606;49.154;9.280;2024-02-26T09:12:17;97976.81;;;9.64;100.00
13080;BME280;6606;49.154;9.280;2024-02-26T09:15:00;97976.06;;;9.85;100.00
13080;BME280;6606;49.154;9.280;2024-02-26T09:17:41;97975.75;;;10.10;100.00
13080;BME280;6606;49.154;9.280;2024-02-26T09:20:24;97979.19;;;10.01;100.00
13080;BME280;6606;49.154;9.280;2024-02-26T09:23:06;97975.38;;;9.60;100.00
13080;BME280;6606;49.154;9.280;2024-02-26T09:25:49;97971.25;;;9.67;100.00
13080;BME280;6606;49.154;9.280;2024-02-26T09:28:31;97975.97;;;9.75;100.00
13080;BME280;6606;49.154;9.280;2024-02-26T09:31:18;97977.28;;;9.92;100.00
13080;BME280;6606;49.154;9.280;2024-02-26T09:34:06;97975.34;;;9.83;100.00
13080;BME280;6606;49.154;9.280;2024-02-26T09:36:48;97981.28;;;9.64;100.00
13080;BME280;6606;49.154;9.280;2024-02-26T09:39:30;97981.50;;;9.83;100.00
13080;BME280;6606;49.154;9.280;2024-02-26T09:42:13;97971.00;;;9.70;100.00
13080;BME280;6606;49.154;9.280;2024-02-26T09:44:55;97973.75;;;9.91;100.00
13080;BME280;6606;49.154;9.280;2024-02-26T09:47:37;97970.72;;;10.51;100.00
13080;BME280;6606;49.154;9.280;2024-02-26T09:50:21;97976.75;;;10.85;100.00
13080;BME280;6606;49.154;9.280;2024-02-26T09:53:04;97973.69;;;11.11;100.00
13080;BME280;6606;49.154;9.280;2024-02-26T09:55:48;97967.56;;;11.41;100.00
13080;BME280;6606;49.154;9.280;2024-02-26T09:58:31;97965.38;;;11.56;100.00
13080;BME280;6606;49.154;9.280;2024-02-26T10:01:16;97969.59;;;11.28;100.00
13080;BME280;6606;49.154;9.280;2024-02-26T10:04:06;97970.25;;;11.51;100.00
13080;BME280;6606;49.154;9.280;2024-02-26T10:06:48;97974.56;;;11.42;100.00
13080;BME280;6606;49.154;9.280;2024-02-26T10:09:31;97977.88;;;11.34;100.00
13080;BME280;6606;49.154;9.280;2024-02-26T10:12:14;97976.31;;;11.62;100.00
13080;BME280;6606;49.154;9.280;2024-02-26T10:14:58;97983.13;;;11.86;100.00
13080;BME280;6606;49.154;9.280;2024-02-26T10:17:41;97970.50;;;12.19;100.00
13080;BME280;6606;49.154;9.280;2024-02-26T10:20:24;97977.41;;;12.41;100.00
13080;BME280;6606;49.154;9.280;2024-02-26T10:23:07;97978.09;;;12.43;100.00
13080;BME280;6606;49.154;9.280;2024-02-26T10:25:52;97965.34;;;12.37;100.00
13080;BME280;6606;49.154;9.280;2024-02-26T10:28:35;97971.66;;;12.65;100.00
13080;BME280;6606;49.154;9.280;2024-02-26T10:31:19;97967.41;;;13.11;100.00
13080;BME280;6606;49.154;9.280;2024-02-26T10:34:01;97974.03;;;12.77;100.00
13080;BME280;6606;49.154;9.280;2024-02-26T10:36:43;97979.50;;;12.86;100.00
13080;BME280;6606;49.154;9.280;2024-02-26T10:39:25;97979.88;;;12.32;100.00
13080;BME280;6606;49.154;9.280;2024-02-26T10:42:12;97987.88;;;12.23;100.00
13080;BME280;6606;49.154;9.280;2024-02-26T10:44:55;97984.56;;;12.60;100.00
13080;BME280;6606;49.154;9.280;2024-02-26T10:47:40;97984.56;;;12.89;100.00
13080;BME280;6606;49.154;9.280;2024-02-26T10:50:22;97987.63;;;12.84;100.00
13080;BME280;6606;49.154;9.280;2024-02-26T10:53:05;97988.28;;;13.25;100.00
13080;BME280;6606;49.154;9.280;2024-02-26T10:55:50;97983.22;;;13.22;100.00
13080;BME280;6606;49.154;9.280;2024-02-26T10:58:34;97981.09;;;13.45;100.00
13080;BME280;6606;49.154;9.280;2024-02-26T11:01:16;97978.03;;;13.68;100.00
13080;BME280;6606;49.154;9.280;2024-02-26T11:04:01;97960.56;;;13.55;100.00
13080;BME280;6606;49.154;9.280;2024-02-26T11:06:44;97963.88;;;13.30;100.00
13080;BME280;6606;49.154;9.280;2024-02-26T11:09:27;97966.59;;;13.57;100.00
13080;BME280;6606;49.154;9.280;2024-02-26T11:12:10;97975.69;;;13.64;100.00
13080;BME280;6606;49.154;9.280;2024-02-26T11:14:53;97984.38;;;14.22;100.00
13080;BME280;6606;49.154;9.280;2024-02-26T11:17:38;97978.94;;;13.86;100.00
13080;BME280;6606;49.154;9.280;2024-02-26T11:20:21;97982.25;;;14.07;96.45
13080;BME280;6606;49.154;9.280;2024-02-26T11:23:04;97983.22;;;13.79;96.50
13080;BME280;6606;49.154;9.280;2024-02-26T11:25:46;97995.56;;;13.33;94.25
13080;BME280;6606;49.154;9.280;2024-02-26T11:28:29;97981.94;;;13.46;100.00
13080;BME280;6606;49.154;9.280;2024-02-26T11:31:13;97991.06;;;13.43;96.63
13080;BME280;6606;49.154;9.280;2024-02-26T11:33:56;97988.72;;;13.68;100.00
13080;BME280;6606;49.154;9.280;2024-02-26T11:36:39;97979.16;;;14.02;93.30
13080;BME280;6606;49.154;9.280;2024-02-26T11:39:22;97977.78;;;13.98;84.88
13080;BME280;6606;49.154;9.280;2024-02-26T11:42:08;97978.28;;;13.84;82.93
13080;BME280;6606;49.154;9.280;2024-02-26T11:44:52;97980.94;;;13.84;84.16
13080;BME280;6606;49.154;9.280;2024-02-26T11:47:36;97978.03;;;13.20;90.94
13080;BME280;6606;49.154;9.280;2024-02-26T11:50:36;97972.28;;;13.35;95.63
13080;BME280;6606;49.154;9.280;2024-02-26T11:53:45;97979.66;;;13.88;87.09
13080;BME280;6606;49.154;9.280;2024-02-26T11:56:29;97984.06;;;13.79;84.58
13080;BME280;6606;49.154;9.280;2024-02-26T11:59:39;97981.66;;;14.04;84.58
13080;BME280;6606;49.154;9.280;2024-02-26T12:02:41;97977.84;;;14.34;77.79
13080;BME280;6606;49.154;9.280;2024-02-26T12:05:23;97983.69;;;14.47;76.49
13080;BME280;6606;49.154;9.280;2024-02-26T12:08:07;97994.63;;;13.99;76.04
13080;BME280;6606;49.154;9.280;2024-02-26T12:10:54;97989.34;;;13.89;81.52
13080;BME280;6606;49.154;9.280;2024-02-26T12:13:36;97989.13;;;14.28;75.00
13080;BME280;6606;49.154;9.280;2024-02-26T12:16:35;97987.66;;;14.43;68.44
13080;BME280;6606;49.154;9.280;2024-02-26T12:19:17;97991.03;;;14.63;72.38
13080;BME280;6606;49.154;9.280;2024-02-26T12:21:59;97982.75;;;14.92;71.91
13080;BME280;6606;49.154;9.280;2024-02-26T12:24:41;97996.59;;;14.70;69.35
13080;BME280;6606;49.154;9.280;2024-02-26T12:27:24;97990.00;;;14.46;72.78
13080;BME280;6606;49.154;9.280;2024-02-26T12:30:07;97987.03;;;15.03;71.07
13080;BME280;6606;49.154;9.280;2024-02-26T12:32:50;98003.69;;;14.79;67.45
13080;BME280;6606;49.154;9.280;2024-02-26T12:35:32;97996.06;;;14.48;68.70
13080;BME280;6606;49.154;9.280;2024-02-26T12:38:14;97996.06;;;14.48;69.80
13080;BME280;6606;49.154;9.280;2024-02-26T12:40:56;97991.22;;;14.34;69.25
13080;BME280;6606;49.154;9.280;2024-02-26T12:43:39;97993.38;;;14.48;71.62
13080;BME280;6606;49.154;9.280;2024-02-26T12:46:21;98002.94;;;14.69;69.72
13080;BME280;6606;49.154;9.280;2024-02-26T12:49:02;98002.16;;;14.59;68.03
13080;BME280;6606;49.154;9.280;2024-02-26T12:51:44;98006.88;;;14.65;67.64
13080;BME280;6606;49.154;9.280;2024-02-26T12:54:26;98010.66;;;14.90;66.64
13080;BME280;6606;49.154;9.280;2024-02-26T12:57:09;98006.44;;;14.87;66.42
13080;BME280;6606;49.154;9.280;2024-02-26T12:59:52;98003.59;;;15.07;69.51
13080;BME280;6606;49.154;9.280;2024-02-26T13:02:34;98012.56;;;15.24;69.89
13080;BME280;6606;49.154;9.280;2024-02-26T13:05:19;98006.19;;;15.43;68.52
13080;BME280;6606;49.154;9.280;2024-02-26T13:08:01;98016.81;;;15.34;61.29
13080;BME280;6606;49.154;9.280;2024-02-26T13:10:42;98024.97;;;15.07;63.79
13080;BME280;6606;49.154;9.280;2024-02-26T13:13:24;98026.19;;;14.94;67.45
13080;BME280;6606;49.154;9.280;2024-02-26T13:16:14;98028.13;;;14.84;66.47
13080;BME280;6606;49.154;9.280;2024-02-26T13:19:10;98034.38;;;15.11;63.70
13080;BME280;6606;49.154;9.280;2024-02-26T13:21:52;98024.28;;;15.05;61.86
13080;BME280;6606;49.154;9.280;2024-02-26T13:24:33;98025.72;;;15.17;65.24
13080;BME280;6606;49.154;9.280;2024-02-26T13:27:21;98031.72;;;15.11;65.54
13080;BME280;6606;49.154;9.280;2024-02-26T13:30:04;98038.28;;;15.16;64.10
13080;BME280;6606;49.154;9.280;2024-02-26T13:32:48;98027.50;;;14.90;71.94
13080;BME280;6606;49.154;9.280;2024-02-26T13:35:29;98044.75;;;14.78;69.06
13080;BME280;6606;49.154;9.280;2024-02-26T13:38:13;98056.06;;;14.72;64.06
13080;BME280;6606;49.154;9.280;2024-02-26T13:40:55;98046.28;;;14.35;72.92
13080;BME280;6606;49.154;9.280;2024-02-26T13:43:37;98050.31;;;14.49;72.85
13080;BME280;6606;49.154;9.280;2024-02-26T13:46:18;98042.31;;;14.67;71.79
13080;BME280;6606;49.154;9.280;2024-02-26T13:49:16;98046.56;;;14.04;76.58
13080;BME280;6606;49.154;9.280;2024-02-26T13:51:58;98046.16;;;14.37;77.29
13080;BME280;6606;49.154;9.280;2024-02-26T13:54:40;98037.81;;;14.67;75.43
13080;BME280;6606;49.154;9.280;2024-02-26T13:57:22;98044.75;;;14.78;72.88
13080;BME280;6606;49.154;9.280;2024-02-26T14:00:07;98045.16;;;15.01;72.51
13080;BME280;6606;49.154;9.280;2024-02-26T14:02:52;98039.66;;;15.03;71.47
13080;BME280;6606;49.154;9.280;2024-02-26T14:05:35;98041.66;;;15.01;73.08
13080;BME280;6606;49.154;9.280;2024-02-26T14:08:17;98039.31;;;15.24;69.63
13080;BME280;6606;49.154;9.280;2024-02-26T14:10:59;98035.72;;;15.15;71.13
13080;BME280;6606;49.154;9.280;2024-02-26T14:13:42;98035.41;;;15.18;71.94
13080;BME280;6606;49.154;9.280;2024-02-26T14:16:24;98046.00;;;15.02;67.04
13080;BME280;6606;49.154;9.280;2024-02-26T14:19:06;98047.19;;;14.53;67.87
13080;BME280;6606;49.154;9.280;2024-02-26T14:21:49;98041.41;;;14.76;68.00
13080;BME280;6606;49.154;9.280;2024-02-26T14:24:32;98039.88;;;14.56;70.12
13080;BME280;6606;49.154;9.280;2024-02-26T14:27:13;98042.63;;;14.36;71.37
13080;BME280;6606;49.154;9.280;2024-02-26T14:29:56;98041.22;;;14.04;70.09
13080;BME280;6606;49.154;9.280;2024-02-26T14:32:38;98046.03;;;14.01;76.29
13080;BME280;6606;49.154;9.280;2024-02-26T14:35:19;98056.94;;;13.80;72.62